sensor_id;sensor_type;location;lat;lon;timestamp;temperature;humidity
21540;DHT22;10931;52.164;5.518;2022-08-03T00:08:20;28.90;58.40
21540;DHT22;10931;52.164;5.518;2022-08-03T00:11:14;28.80;58.30
21540;DHT22;10931;52.164;5.518;2022-08-03T00:14:15;28.90;58.50
21540;DHT22;10931;52.164;5.518;2022-08-03T00:19:52;28.80;58.30
21540;DHT22;10931;52.164;5.518;2022-08-03T00:22:20;28.80;58.40
21540;DHT22;10931;52.164;5.518;2022-08-03T00:25:01;28.80;58.40
21540;DHT22;10931;52.164;5.518;2022-08-03T00:27:35;28.80;58.40
21540;DHT22;10931;52.164;5.518;2022-08-03T00:30:09;28.80;58.40
21540;DHT22;10931;52.164;5.518;2022-08-03T00:32:56;28.80;58.40
21540;DHT22;10931;52.164;5.518;2022-08-03T00:35:24;28.80;58.40
21540;DHT22;10931;52.164;5.518;2022-08-03T00:41:20;28.70;58.40
21540;DHT22;10931;52.164;5.518;2022-08-03T00:43:49;28.70;58.30
21540;DHT22;10931;52.164;5.518;2022-08-03T00:46:17;28.70;58.30
21540;DHT22;10931;52.164;5.518;2022-08-03T00:48:49;28.80;59.10
21540;DHT22;10931;52.164;5.518;2022-08-03T00:51:23;28.70;58.30
21540;DHT22;10931;52.164;5.518;2022-08-03T00:53:52;28.80;58.40
21540;DHT22;10931;52.164;5.518;2022-08-03T00:56:20;28.70;58.30
21540;DHT22;10931;52.164;5.518;2022-08-03T00:58:49;28.70;58.30
21540;DHT22;10931;52.164;5.518;2022-08-03T01:04:10;28.70;58.40
21540;DHT22;10931;52.164;5.518;2022-08-03T01:43:41;28.60;58.40
21540;DHT22;10931;52.164;5.518;2022-08-03T01:46:22;28.60;58.40
21540;DHT22;10931;52.164;5.518;2022-08-03T01:54:27;28.60;58.40
21540;DHT22;10931;52.164;5.518;2022-08-03T01:56:58;28.50;58.30
21540;DHT22;10931;52.164;5.518;2022-08-03T01:59:27;28.50;58.30
21540;DHT22;10931;52.164;5.518;2022-08-03T02:02:04;28.50;58.30
21540;DHT22;10931;52.164;5.518;2022-08-03T02:04:37;28.50;58.30
21540;DHT22;10931;52.164;5.518;2022-08-03T02:20:18;28.50;58.30
21540;DHT22;10931;52.164;5.518;2022-08-03T02:34:32;28.50;58.30
21540;DHT22;10931;52.164;5.518;2022-08-03T02:37:46;28.50;58.30
21540;DHT22;10931;52.164;5.518;2022-08-03T02:51:09;28.40;58.30
21540;DHT22;10931;52.164;5.518;2022-08-03T02:53:38;28.40;58.30
21540;DHT22;10931;52.164;5.518;2022-08-03T02:56:11;28.40;58.30
21540;DHT22;10931;52.164;5.518;2022-08-03T02:58:41;28.40;58.30
21540;DHT22;10931;52.164;5.518;2022-08-03T03:01:24;28.40;58.30
21540;DHT22;10931;52.164;5.518;2022-08-03T03:03:55;28.40;58.30
21540;DHT22;10931;52.164;5.518;2022-08-03T03:06:24;28.40;58.30
21540;DHT22;10931;52.164;5.518;2022-08-03T03:08:54;28.40;58.30
21540;DHT22;10931;52.164;5.518;2022-08-03T03:11:21;28.40;58.30
21540;DHT22;10931;52.164;5.518;2022-08-03T03:13:59;28.40;58.30
21540;DHT22;10931;52.164;5.518;2022-08-03T03:16:28;28.30;58.30
21540;DHT22;10931;52.164;5.518;2022-08-03T03:18:55;28.30;58.30
21540;DHT22;10931;52.164;5.518;2022-08-03T03:24:49;28.40;58.40
21540;DHT22;10931;52.164;5.518;2022-08-03T03:27:22;28.30;58.30
21540;DHT22;10931;52.164;5.518;2022-08-03T03:29:52;28.30;58.30
21540;DHT22;10931;52.164;5.518;2022-08-03T03:35:01;28.30;58.30
21540;DHT22;10931;52.164;5.518;2022-08-03T03:37:31;28.30;58.30
21540;DHT22;10931;52.164;5.518;2022-08-03T03:40:17;28.30;58.30
21540;DHT22;10931;52.164;5.518;2022-08-03T03:42:53;28.30;58.30
21540;DHT22;10931;52.164;5.518;2022-08-03T03:45:37;28.30;58.30
21540;DHT22;10931;52.164;5.518;2022-08-03T03:48:29;28.30;58.30
21540;DHT22;10931;52.164;5.518;2022-08-03T03:51:10;28.30;58.30
21540;DHT22;10931;52.164;5.518;2022-08-03T03:53:52;28.20;58.30
21540;DHT22;10931;52.164;5.518;2022-08-03T03:56:26;28.30;58.30
21540;DHT22;10931;52.164;5.518;2022-08-03T03:58:55;28.30;58.30
21540;DHT22;10931;52.164;5.518;2022-08-03T04:02:02;28.30;58.30
21540;DHT22;10931;52.164;5.518;2022-08-03T04:08:16;28.20;58.30
21540;DHT22;10931;52.164;5.518;2022-08-03T04:11:23;28.20;58.30
21540;DHT22;10931;52.164;5.518;2022-08-03T04:14:08;28.20;58.30
21540;DHT22;10931;52.164;5.518;2022-08-03T04:16:36;28.20;58.30
21540;DHT22;10931;52.164;5.518;2022-08-03T04:19:41;28.20;58.30
21540;DHT22;10931;52.164;5.518;2022-08-03T04:22:16;28.20;58.30
21540;DHT22;10931;52.164;5.518;2022-08-03T04:24:47;28.20;58.30
21540;DHT22;10931;52.164;5.518;2022-08-03T04:27:19;28.20;58.30
21540;DHT22;10931;52.164;5.518;2022-08-03T04:29:55;28.10;58.30
21540;DHT22;10931;52.164;5.518;2022-08-03T04:32:26;28.20;58.30
21540;DHT22;10931;52.164;5.518;2022-08-03T04:34:58;28.20;58.40
21540;DHT22;10931;52.164;5.518;2022-08-03T04:37:47;28.10;58.30
21540;DHT22;10931;52.164;5.518;2022-08-03T04:40:34;28.20;58.30
21540;DHT22;10931;52.164;5.518;2022-08-03T04:43:12;28.20;58.30
21540;DHT22;10931;52.164;5.518;2022-08-03T04:48:44;28.10;58.30
21540;DHT22;10931;52.164;5.518;2022-08-03T04:51:24;28.10;58.30
21540;DHT22;10931;52.164;5.518;2022-08-03T04:53:50;28.10;58.30
21540;DHT22;10931;52.164;5.518;2022-08-03T04:56:18;28.10;58.30
21540;DHT22;10931;52.164;5.518;2022-08-03T04:58:47;28.10;58.30
21540;DHT22;10931;52.164;5.518;2022-08-03T05:01:15;28.10;58.30
21540;DHT22;10931;52.164;5.518;2022-08-03T05:03:51;28.10;58.30
21540;DHT22;10931;52.164;5.518;2022-08-03T05:06:47;28.10;58.30
21540;DHT22;10931;52.164;5.518;2022-08-03T05:09:43;28.10;58.30
21540;DHT22;10931;52.164;5.518;2022-08-03T05:12:18;28.10;58.30
21540;DHT22;10931;52.164;5.518;2022-08-03T05:14:53;28.10;58.30
21540;DHT22;10931;52.164;5.518;2022-08-03T05:17:45;28.00;58.30
21540;DHT22;10931;52.164;5.518;2022-08-03T05:20:34;28.00;58.30
21540;DHT22;10931;52.164;5.518;2022-08-03T05:23:28;28.10;58.30
21540;DHT22;10931;52.164;5.518;2022-08-03T05:28:34;28.00;58.30
21540;DHT22;10931;52.164;5.518;2022-08-03T05:31:09;28.00;58.30
21540;DHT22;10931;52.164;5.518;2022-08-03T05:33:56;28.00;58.30
21540;DHT22;10931;52.164;5.518;2022-08-03T05:36:34;28.00;58.30
21540;DHT22;10931;52.164;5.518;2022-08-03T05:39:03;28.00;58.30
21540;DHT22;10931;52.164;5.518;2022-08-03T05:49:23;28.00;58.30
21540;DHT22;10931;52.164;5.518;2022-08-03T05:52:05;28.00;58.40
21540;DHT22;10931;52.164;5.518;2022-08-03T05:54:41;28.00;58.30
21540;DHT22;10931;52.164;5.518;2022-08-03T05:57:20;28.00;58.30
21540;DHT22;10931;52.164;5.518;2022-08-03T05:59:51;28.00;58.30
21540;DHT22;10931;52.164;5.518;2022-08-03T06:02:32;28.00;58.30
21540;DHT22;10931;52.164;5.518;2022-08-03T06:05:12;28.00;58.30
21540;DHT22;10931;52.164;5.518;2022-08-03T06:07:38;28.00;58.30
21540;DHT22;10931;52.164;5.518;2022-08-03T06:10:07;27.90;58.30
21540;DHT22;10931;52.164;5.518;2022-08-03T06:12:39;28.00;58.30
21540;DHT22;10931;52.164;5.518;2022-08-03T06:15:10;27.90;58.30
21540;DHT22;10931;52.164;5.518;2022-08-03T06:17:50;27.90;58.30
21540;DHT22;10931;52.164;5.518;2022-08-03T06:20:19;27.90;58.30
21540;DHT22;10931;52.164;5.518;2022-08-03T06:23:05;27.90;58.30
21540;DHT22;10931;52.164;5.518;2022-08-03T06:25:33;27.90;58.30
21540;DHT22;10931;52.164;5.518;2022-08-03T06:27:59;27.90;58.30
21540;DHT22;10931;52.164;5.518;2022-08-03T06:30:28;27.90;58.30
21540;DHT22;10931;52.164;5.518;2022-08-03T06:35:51;27.90;58.40
21540;DHT22;10931;52.164;5.518;2022-08-03T06:38:24;27.90;58.40
21540;DHT22;10931;52.164;5.518;2022-08-03T06:41:26;27.90;58.40
21540;DHT22;10931;52.164;5.518;2022-08-03T06:43:52;27.90;58.40
21540;DHT22;10931;52.164;5.518;2022-08-03T06:46:21;27.90;58.40
21540;DHT22;10931;52.164;5.518;2022-08-03T06:48:47;27.90;58.40
21540;DHT22;10931;52.164;5.518;2022-08-03T06:51:21;27.90;58.40
21540;DHT22;10931;52.164;5.518;2022-08-03T06:53:51;27.90;58.40
21540;DHT22;10931;52.164;5.518;2022-08-03T06:56:51;27.90;58.40
21540;DHT22;10931;52.164;5.518;2022-08-03T06:59:25;27.90;58.40
21540;DHT22;10931;52.164;5.518;2022-08-03T07:01:53;27.90;58.40
21540;DHT22;10931;52.164;5.518;2022-08-03T07:04:45;27.90;58.50
21540;DHT22;10931;52.164;5.518;2022-08-03T07:07:20;27.90;58.50
21540;DHT22;10931;52.164;5.518;2022-08-03T07:10:07;27.90;58.50
21540;DHT22;10931;52.164;5.518;2022-08-03T07:12:43;27.90;58.50
21540;DHT22;10931;52.164;5.518;2022-08-03T07:15:11;27.90;58.50
21540;DHT22;10931;52.164;5.518;2022-08-03T07:17:38;27.90;58.50
21540;DHT22;10931;52.164;5.518;2022-08-03T07:22:34;27.90;58.50
21540;DHT22;10931;52.164;5.518;2022-08-03T07:25:05;27.90;58.50
21540;DHT22;10931;52.164;5.518;2022-08-03T07:27:37;27.90;58.50
21540;DHT22;10931;52.164;5.518;2022-08-03T07:30:06;27.90;58.50
21540;DHT22;10931;52.164;5.518;2022-08-03T07:32:32;27.90;58.60
21540;DHT22;10931;52.164;5.518;2022-08-03T07:35:02;27.90;58.60
21540;DHT22;10931;52.164;5.518;2022-08-03T07:37:29;27.90;58.60
21540;DHT22;10931;52.164;5.518;2022-08-03T07:43:01;27.80;58.50
21540;DHT22;10931;52.164;5.518;2022-08-03T07:45:56;27.90;58.60
21540;DHT22;10931;52.164;5.518;2022-08-03T07:51:29;27.90;58.60
21540;DHT22;10931;52.164;5.518;2022-08-03T07:54:11;27.90;58.60
21540;DHT22;10931;52.164;5.518;2022-08-03T07:56:37;27.90;58.70
21540;DHT22;10931;52.164;5.518;2022-08-03T07:59:05;27.90;58.60
21540;DHT22;10931;52.164;5.518;2022-08-03T08:01:31;27.90;58.60
21540;DHT22;10931;52.164;5.518;2022-08-03T08:04:00;27.90;58.70
21540;DHT22;10931;52.164;5.518;2022-08-03T08:06:25;27.90;58.70
21540;DHT22;10931;52.164;5.518;2022-08-03T08:08:51;27.90;58.70
21540;DHT22;10931;52.164;5.518;2022-08-03T08:11:18;27.90;58.70
21540;DHT22;10931;52.164;5.518;2022-08-03T08:13:49;27.90;58.70
21540;DHT22;10931;52.164;5.518;2022-08-03T08:16:15;27.90;58.70
21540;DHT22;10931;52.164;5.518;2022-08-03T08:19:02;27.90;58.70
21540;DHT22;10931;52.164;5.518;2022-08-03T08:21:27;27.90;58.70
21540;DHT22;10931;52.164;5.518;2022-08-03T08:23:54;27.90;58.70
21540;DHT22;10931;52.164;5.518;2022-08-03T08:26:23;27.90;58.70
21540;DHT22;10931;52.164;5.518;2022-08-03T08:28:48;27.90;58.70
21540;DHT22;10931;52.164;5.518;2022-08-03T08:31:39;27.90;58.70
21540;DHT22;10931;52.164;5.518;2022-08-03T08:34:07;27.90;58.70
21540;DHT22;10931;52.164;5.518;2022-08-03T08:36:50;27.90;58.70
21540;DHT22;10931;52.164;5.518;2022-08-03T08:39:24;27.90;58.70
21540;DHT22;10931;52.164;5.518;2022-08-03T08:41:50;27.90;58.70
21540;DHT22;10931;52.164;5.518;2022-08-03T08:44:22;27.90;58.70
21540;DHT22;10931;52.164;5.518;2022-08-03T08:46:56;27.90;58.70
21540;DHT22;10931;52.164;5.518;2022-08-03T08:49:29;27.90;58.70
21540;DHT22;10931;52.164;5.518;2022-08-03T08:51:58;27.90;58.70
21540;DHT22;10931;52.164;5.518;2022-08-03T08:54:38;27.90;58.70
21540;DHT22;10931;52.164;5.518;2022-08-03T08:57:21;27.90;58.70
21540;DHT22;10931;52.164;5.518;2022-08-03T09:00:41;27.90;58.70
21540;DHT22;10931;52.164;5.518;2022-08-03T09:03:27;27.90;58.70
21540;DHT22;10931;52.164;5.518;2022-08-03T09:06:06;27.90;58.70
21540;DHT22;10931;52.164;5.518;2022-08-03T09:08:53;27.90;58.70
21540;DHT22;10931;52.164;5.518;2022-08-03T09:11:31;27.90;58.20
21540;DHT22;10931;52.164;5.518;2022-08-03T09:18:00;27.90;58.70
21540;DHT22;10931;52.164;5.518;2022-08-03T09:26:36;28.00;58.80
21540;DHT22;10931;52.164;5.518;2022-08-03T09:29:18;28.00;58.80
21540;DHT22;10931;52.164;5.518;2022-08-03T09:32:02;28.00;58.80
21540;DHT22;10931;52.164;5.518;2022-08-03T09:34:42;28.00;58.90
21540;DHT22;10931;52.164;5.518;2022-08-03T09:37:26;28.00;58.90
21540;DHT22;10931;52.164;5.518;2022-08-03T09:40:12;28.00;58.90
21540;DHT22;10931;52.164;5.518;2022-08-03T09:43:39;28.00;58.90
21540;DHT22;10931;52.164;5.518;2022-08-03T09:46:50;28.00;58.90
21540;DHT22;10931;52.164;5.518;2022-08-03T10:00:18;28.10;59.00
21540;DHT22;10931;52.164;5.518;2022-08-03T10:05:36;28.10;59.00
21540;DHT22;10931;52.164;5.518;2022-08-03T10:08:22;28.10;59.00
21540;DHT22;10931;52.164;5.518;2022-08-03T10:10:52;28.10;59.00
21540;DHT22;10931;52.164;5.518;2022-08-03T10:13:23;28.10;59.00
21540;DHT22;10931;52.164;5.518;2022-08-03T10:16:01;28.10;59.00
21540;DHT22;10931;52.164;5.518;2022-08-03T10:18:29;28.20;59.10
21540;DHT22;10931;52.164;5.518;2022-08-03T10:21:02;28.10;59.00
21540;DHT22;10931;52.164;5.518;2022-08-03T10:23:33;28.20;59.10
21540;DHT22;10931;52.164;5.518;2022-08-03T10:26:05;28.20;59.10
21540;DHT22;10931;52.164;5.518;2022-08-03T10:29:04;28.20;59.10
21540;DHT22;10931;52.164;5.518;2022-08-03T10:31:37;28.20;59.10
21540;DHT22;10931;52.164;5.518;2022-08-03T10:34:24;28.20;59.10
21540;DHT22;10931;52.164;5.518;2022-08-03T10:36:52;28.30;59.10
21540;DHT22;10931;52.164;5.518;2022-08-03T10:39:22;28.30;59.10
21540;DHT22;10931;52.164;5.518;2022-08-03T10:41:49;28.30;59.10
21540;DHT22;10931;52.164;5.518;2022-08-03T10:44:22;28.30;59.20
21540;DHT22;10931;52.164;5.518;2022-08-03T10:46:53;28.30;59.10
21540;DHT22;10931;52.164;5.518;2022-08-03T10:49:33;28.30;59.80
21540;DHT22;10931;52.164;5.518;2022-08-03T10:51:58;28.30;59.20
21540;DHT22;10931;52.164;5.518;2022-08-03T10:54:40;28.30;59.10
21540;DHT22;10931;52.164;5.518;2022-08-03T10:57:45;28.30;59.20
21540;DHT22;10931;52.164;5.518;2022-08-03T11:00:33;28.40;59.20
21540;DHT22;10931;52.164;5.518;2022-08-03T11:03:15;28.40;59.20
21540;DHT22;10931;52.164;5.518;2022-08-03T11:05:47;28.40;59.20
21540;DHT22;10931;52.164;5.518;2022-08-03T11:10:43;28.50;59.20
21540;DHT22;10931;52.164;5.518;2022-08-03T11:13:17;28.50;59.20
21540;DHT22;10931;52.164;5.518;2022-08-03T11:15:46;28.40;59.20
21540;DHT22;10931;52.164;5.518;2022-08-03T11:18:12;28.50;59.20
21540;DHT22;10931;52.164;5.518;2022-08-03T11:20:53;28.50;59.20
21540;DHT22;10931;52.164;5.518;2022-08-03T11:23:39;28.50;59.20
21540;DHT22;10931;52.164;5.518;2022-08-03T11:26:15;28.50;59.20
21540;DHT22;10931;52.164;5.518;2022-08-03T11:28:46;28.50;59.20
21540;DHT22;10931;52.164;5.518;2022-08-03T11:34:34;28.60;59.50
21540;DHT22;10931;52.164;5.518;2022-08-03T11:37:28;28.60;59.40
21540;DHT22;10931;52.164;5.518;2022-08-03T11:40:14;28.60;59.40
21540;DHT22;10931;52.164;5.518;2022-08-03T11:43:02;28.60;59.40
21540;DHT22;10931;52.164;5.518;2022-08-03T11:49:06;28.70;59.50
21540;DHT22;10931;52.164;5.518;2022-08-03T11:55:19;28.70;59.50
21540;DHT22;10931;52.164;5.518;2022-08-03T12:00:31;28.80;59.50
21540;DHT22;10931;52.164;5.518;2022-08-03T12:03:21;28.80;59.50
21540;DHT22;10931;52.164;5.518;2022-08-03T12:32:51;29.10;59.50
21540;DHT22;10931;52.164;5.518;2022-08-03T12:35:48;29.10;59.50
21540;DHT22;10931;52.164;5.518;2022-08-03T12:38:22;29.10;59.50
21540;DHT22;10931;52.164;5.518;2022-08-03T12:41:08;29.10;59.40
21540;DHT22;10931;52.164;5.518;2022-08-03T12:43:52;29.20;59.50
21540;DHT22;10931;52.164;5.518;2022-08-03T12:52:30;29.20;59.50
21540;DHT22;10931;52.164;5.518;2022-08-03T12:55:21;29.30;59.50
21540;DHT22;10931;52.164;5.518;2022-08-03T12:58:36;29.30;59.50
21540;DHT22;10931;52.164;5.518;2022-08-03T13:01:07;29.30;59.50
21540;DHT22;10931;52.164;5.518;2022-08-03T13:03:44;29.30;59.50
21540;DHT22;10931;52.164;5.518;2022-08-03T13:11:42;29.40;59.50
21540;DHT22;10931;52.164;5.518;2022-08-03T13:14:23;29.50;59.50
21540;DHT22;10931;52.164;5.518;2022-08-03T13:16:51;29.50;59.50
21540;DHT22;10931;52.164;5.518;2022-08-03T13:22:17;29.50;59.50
21540;DHT22;10931;52.164;5.518;2022-08-03T13:25:01;29.50;59.50
21540;DHT22;10931;52.164;5.518;2022-08-03T13:27:35;29.60;59.60
21540;DHT22;10931;52.164;5.518;2022-08-03T13:30:14;29.60;59.50
21540;DHT22;10931;52.164;5.518;2022-08-03T13:37:46;29.70;59.50
21540;DHT22;10931;52.164;5.518;2022-08-03T13:40:20;29.70;59.50
21540;DHT22;10931;52.164;5.518;2022-08-03T13:48:45;29.80;59.50
21540;DHT22;10931;52.164;5.518;2022-08-03T13:51:22;29.80;59.50
21540;DHT22;10931;52.164;5.518;2022-08-03T13:57:04;29.80;59.50
21540;DHT22;10931;52.164;5.518;2022-08-03T13:59:32;29.80;59.50
21540;DHT22;10931;52.164;5.518;2022-08-03T14:02:38;29.90;59.50
21540;DHT22;10931;52.164;5.518;2022-08-03T14:05:30;29.90;59.50
21540;DHT22;10931;52.164;5.518;2022-08-03T14:18:26;30.00;59.50
21540;DHT22;10931;52.164;5.518;2022-08-03T14:23:57;30.10;59.50
21540;DHT22;10931;52.164;5.518;2022-08-03T14:29:27;30.10;59.50
21540;DHT22;10931;52.164;5.518;2022-08-03T14:31:55;30.10;59.50
21540;DHT22;10931;52.164;5.518;2022-08-03T14:34:23;30.20;59.60
21540;DHT22;10931;52.164;5.518;2022-08-03T14:45:01;30.30;59.60
21540;DHT22;10931;52.164;5.518;2022-08-03T14:53:38;30.40;59.50
21540;DHT22;10931;52.164;5.518;2022-08-03T14:56:20;30.40;59.50
21540;DHT22;10931;52.164;5.518;2022-08-03T15:02:02;30.50;59.70
21540;DHT22;10931;52.164;5.518;2022-08-03T15:04:34;30.60;59.60
21540;DHT22;10931;52.164;5.518;2022-08-03T15:06:59;30.60;59.60
21540;DHT22;10931;52.164;5.518;2022-08-03T15:09:28;30.60;59.60
21540;DHT22;10931;52.164;5.518;2022-08-03T15:11:54;30.70;59.60
21540;DHT22;10931;52.164;5.518;2022-08-03T15:14:20;30.70;59.50
21540;DHT22;10931;52.164;5.518;2022-08-03T15:16:45;30.70;59.50
21540;DHT22;10931;52.164;5.518;2022-08-03T15:19:14;30.70;59.40
21540;DHT22;10931;52.164;5.518;2022-08-03T15:21:45;30.70;59.50
21540;DHT22;10931;52.164;5.518;2022-08-03T15:24:16;30.80;59.40
21540;DHT22;10931;52.164;5.518;2022-08-03T15:26:49;30.80;59.40
21540;DHT22;10931;52.164;5.518;2022-08-03T15:29:18;30.80;59.40
21540;DHT22;10931;52.164;5.518;2022-08-03T15:31:47;30.90;59.40
21540;DHT22;10931;52.164;5.518;2022-08-03T15:34:36;30.90;59.40
21540;DHT22;10931;52.164;5.518;2022-08-03T15:37:10;30.90;59.30
21540;DHT22;10931;52.164;5.518;2022-08-03T15:39:36;30.90;59.40
21540;DHT22;10931;52.164;5.518;2022-08-03T15:42:14;31.00;59.50
21540;DHT22;10931;52.164;5.518;2022-08-03T15:44:52;31.00;59.40
21540;DHT22;10931;52.164;5.518;2022-08-03T15:47:36;31.00;59.40
21540;DHT22;10931;52.164;5.518;2022-08-03T15:50:10;31.00;59.20
21540;DHT22;10931;52.164;5.518;2022-08-03T15:58:57;31.10;59.10
21540;DHT22;10931;52.164;5.518;2022-08-03T16:01:24;31.10;58.90
21540;DHT22;10931;52.164;5.518;2022-08-03T16:14:28;31.20;58.60
21540;DHT22;10931;52.164;5.518;2022-08-03T16:17:07;31.20;58.60
21540;DHT22;10931;52.164;5.518;2022-08-03T16:19:41;31.20;58.40
21540;DHT22;10931;52.164;5.518;2022-08-03T16:22:07;31.20;58.30
21540;DHT22;10931;52.164;5.518;2022-08-03T16:24:33;31.20;58.30
21540;DHT22;10931;52.164;5.518;2022-08-03T16:27:04;31.20;58.30
21540;DHT22;10931;52.164;5.518;2022-08-03T16:29:59;31.20;58.30
21540;DHT22;10931;52.164;5.518;2022-08-03T16:35:05;31.20;58.30
21540;DHT22;10931;52.164;5.518;2022-08-03T16:38:04;31.20;58.30
21540;DHT22;10931;52.164;5.518;2022-08-03T16:40:40;31.20;58.30
21540;DHT22;10931;52.164;5.518;2022-08-03T16:43:14;31.30;58.30
21540;DHT22;10931;52.164;5.518;2022-08-03T16:45:57;31.20;58.10
21540;DHT22;10931;52.164;5.518;2022-08-03T16:48:23;31.20;58.10
21540;DHT22;10931;52.164;5.518;2022-08-03T16:50:51;31.20;58.10
21540;DHT22;10931;52.164;5.518;2022-08-03T16:54:03;31.20;58.10
21540;DHT22;10931;52.164;5.518;2022-08-03T17:04:20;31.30;58.10
21540;DHT22;10931;52.164;5.518;2022-08-03T17:06:46;31.30;58.10
21540;DHT22;10931;52.164;5.518;2022-08-03T17:09:16;31.30;58.00
21540;DHT22;10931;52.164;5.518;2022-08-03T17:11:46;31.40;58.10
21540;DHT22;10931;52.164;5.518;2022-08-03T17:14:20;31.40;58.10
21540;DHT22;10931;52.164;5.518;2022-08-03T17:32:40;31.40;58.00
21540;DHT22;10931;52.164;5.518;2022-08-03T17:35:17;31.40;58.00
21540;DHT22;10931;52.164;5.518;2022-08-03T17:38:15;31.40;58.00
21540;DHT22;10931;52.164;5.518;2022-08-03T17:41:02;31.40;58.00
21540;DHT22;10931;52.164;5.518;2022-08-03T17:55:39;31.40;58.10
21540;DHT22;10931;52.164;5.518;2022-08-03T17:58:21;31.40;58.30
21540;DHT22;10931;52.164;5.518;2022-08-03T18:01:03;31.40;58.20
21540;DHT22;10931;52.164;5.518;2022-08-03T18:03:53;31.40;58.30
21540;DHT22;10931;52.164;5.518;2022-08-03T18:06:34;31.30;58.20
21540;DHT22;10931;52.164;5.518;2022-08-03T18:09:08;31.30;58.30
21540;DHT22;10931;52.164;5.518;2022-08-03T18:11:41;31.30;58.30
21540;DHT22;10931;52.164;5.518;2022-08-03T18:17:32;31.20;58.30
21540;DHT22;10931;52.164;5.518;2022-08-03T18:20:08;31.20;58.40
21540;DHT22;10931;52.164;5.518;2022-08-03T18:22:40;31.20;58.70
21540;DHT22;10931;52.164;5.518;2022-08-03T18:25:17;31.20;58.50
21540;DHT22;10931;52.164;5.518;2022-08-03T18:27:47;31.20;58.50
21540;DHT22;10931;52.164;5.518;2022-08-03T18:30:17;31.20;58.60
21540;DHT22;10931;52.164;5.518;2022-08-03T18:32:47;31.20;58.70
21540;DHT22;10931;52.164;5.518;2022-08-03T18:35:18;31.20;58.70
21540;DHT22;10931;52.164;5.518;2022-08-03T18:37:47;31.20;58.80
21540;DHT22;10931;52.164;5.518;2022-08-03T18:40:15;31.10;58.80
21540;DHT22;10931;52.164;5.518;2022-08-03T18:42:44;31.10;58.80
21540;DHT22;10931;52.164;5.518;2022-08-03T18:45:12;31.00;58.70
21540;DHT22;10931;52.164;5.518;2022-08-03T18:50:50;31.00;58.80
21540;DHT22;10931;52.164;5.518;2022-08-03T18:53:39;31.00;58.80
21540;DHT22;10931;52.164;5.518;2022-08-03T18:58:58;31.00;59.20
21540;DHT22;10931;52.164;5.518;2022-08-03T19:01:39;30.90;59.30
21540;DHT22;10931;52.164;5.518;2022-08-03T19:04:11;30.90;59.40
21540;DHT22;10931;52.164;5.518;2022-08-03T19:06:41;30.90;59.50
21540;DHT22;10931;52.164;5.518;2022-08-03T19:12:52;30.90;59.50
21540;DHT22;10931;52.164;5.518;2022-08-03T19:15:32;30.80;59.60
21540;DHT22;10931;52.164;5.518;2022-08-03T19:18:09;30.80;59.60
21540;DHT22;10931;52.164;5.518;2022-08-03T19:20:40;30.80;59.70
21540;DHT22;10931;52.164;5.518;2022-08-03T19:23:10;30.70;59.60
21540;DHT22;10931;52.164;5.518;2022-08-03T19:25:39;30.80;59.80
21540;DHT22;10931;52.164;5.518;2022-08-03T19:28:06;30.70;59.70
21540;DHT22;10931;52.164;5.518;2022-08-03T19:30:36;30.70;59.90
21540;DHT22;10931;52.164;5.518;2022-08-03T19:33:06;30.70;59.90
21540;DHT22;10931;52.164;5.518;2022-08-03T19:35:32;30.70;60.00
21540;DHT22;10931;52.164;5.518;2022-08-03T19:38:03;30.60;60.10
21540;DHT22;10931;52.164;5.518;2022-08-03T19:40:32;30.70;60.30
21540;DHT22;10931;52.164;5.518;2022-08-03T19:43:04;30.60;60.30
21540;DHT22;10931;52.164;5.518;2022-08-03T19:45:34;30.60;60.30
21540;DHT22;10931;52.164;5.518;2022-08-03T19:48:10;30.60;60.40
21540;DHT22;10931;52.164;5.518;2022-08-03T19:50:37;30.50;60.40
21540;DHT22;10931;52.164;5.518;2022-08-03T19:53:16;30.50;60.50
21540;DHT22;10931;52.164;5.518;2022-08-03T19:55:46;30.50;60.70
21540;DHT22;10931;52.164;5.518;2022-08-03T19:58:16;30.50;60.80
21540;DHT22;10931;52.164;5.518;2022-08-03T20:00:43;30.50;60.90
21540;DHT22;10931;52.164;5.518;2022-08-03T20:03:08;30.50;60.90
21540;DHT22;10931;52.164;5.518;2022-08-03T20:05:35;30.50;61.10
21540;DHT22;10931;52.164;5.518;2022-08-03T20:08:03;30.40;61.10
21540;DHT22;10931;52.164;5.518;2022-08-03T20:10:30;30.40;61.10
21540;DHT22;10931;52.164;5.518;2022-08-03T20:12:59;30.40;61.30
21540;DHT22;10931;52.164;5.518;2022-08-03T20:15:25;30.40;61.30
21540;DHT22;10931;52.164;5.518;2022-08-03T20:17:52;30.40;61.40
21540;DHT22;10931;52.164;5.518;2022-08-03T20:20:33;30.30;61.40
21540;DHT22;10931;52.164;5.518;2022-08-03T20:23:09;30.30;61.40
21540;DHT22;10931;52.164;5.518;2022-08-03T20:25:42;30.30;61.50
21540;DHT22;10931;52.164;5.518;2022-08-03T20:30:54;30.30;61.70
21540;DHT22;10931;52.164;5.518;2022-08-03T20:33:20;30.20;61.60
21540;DHT22;10931;52.164;5.518;2022-08-03T20:35:52;30.20;61.70
21540;DHT22;10931;52.164;5.518;2022-08-03T20:38:18;30.20;61.70
21540;DHT22;10931;52.164;5.518;2022-08-03T20:40:54;30.10;61.70
21540;DHT22;10931;52.164;5.518;2022-08-03T20:43:25;30.10;61.70
21540;DHT22;10931;52.164;5.518;2022-08-03T20:45:51;30.10;61.90
21540;DHT22;10931;52.164;5.518;2022-08-03T20:48:22;30.00;61.80
21540;DHT22;10931;52.164;5.518;2022-08-03T20:50:51;30.10;62.10
21540;DHT22;10931;52.164;5.518;2022-08-03T20:53:24;30.00;62.00
21540;DHT22;10931;52.164;5.518;2022-08-03T20:55:50;30.00;62.10
21540;DHT22;10931;52.164;5.518;2022-08-03T20:58:27;30.00;62.30
21540;DHT22;10931;52.164;5.518;2022-08-03T21:00:55;29.90;62.30
21540;DHT22;10931;52.164;5.518;2022-08-03T21:03:24;29.90;62.40
21540;DHT22;10931;52.164;5.518;2022-08-03T21:05:54;29.90;62.90
21540;DHT22;10931;52.164;5.518;2022-08-03T21:08:25;29.80;62.50
21540;DHT22;10931;52.164;5.518;2022-08-03T21:11:02;29.80;62.60
21540;DHT22;10931;52.164;5.518;2022-08-03T21:14:18;29.80;62.70
21540;DHT22;10931;52.164;5.518;2022-08-03T21:16:18;29.80;62.70
21540;DHT22;10931;52.164;5.518;2022-08-03T21:18:54;29.70;62.60
21540;DHT22;10931;52.164;5.518;2022-08-03T21:21:22;29.80;62.80
21540;DHT22;10931;52.164;5.518;2022-08-03T21:23:53;29.80;62.80
21540;DHT22;10931;52.164;5.518;2022-08-03T21:26:22;29.80;62.80
21540;DHT22;10931;52.164;5.518;2022-08-03T21:28:56;29.80;62.70
21540;DHT22;10931;52.164;5.518;2022-08-03T21:31:27;29.80;62.80
21540;DHT22;10931;52.164;5.518;2022-08-03T21:33:54;29.80;62.70
21540;DHT22;10931;52.164;5.518;2022-08-03T21:36:20;29.80;62.70
21540;DHT22;10931;52.164;5.518;2022-08-03T21:38:48;29.90;62.80
21540;DHT22;10931;52.164;5.518;2022-08-03T21:41:16;29.80;62.70
21540;DHT22;10931;52.164;5.518;2022-08-03T21:43:42;29.80;62.70
21540;DHT22;10931;52.164;5.518;2022-08-03T21:46:08;29.80;62.70
21540;DHT22;10931;52.164;5.518;2022-08-03T21:48:39;29.90;62.70